KFCS

Butts AAF (Fort Carson) Airport

Fort Carson, Colorado, USA

KFCS 110858Z AUTO 33010KT 10SM CLR 02/M19 A3032 RMK AO2 SLP273 T00161190 58004 $

Observed Flight Rules
Dec-11 @ 08:58 UTC (20 minutes ago) Visual Flight Rules
Wind Visibility Clouds
330° at 10 knots 10 miles
  • Clear skies
Temperatures Readings
Current 2°C / 36°F
Dewpoint -19°C / -2°F
Humidity 20%
Altimeter 30.32" Hg
Pressure 1027.3 hPa
Elevation 1789
Observed Flight Rules
Dec-11 @ 08:58 UTC
(20 minutes ago)
VFR
Wind Visibility
330° at 10 knots 10 miles
Clouds
  • Clear skies
Temperature Dewpoint
2°C / 36°F -19°C / -2°F
Humidity Altimeter Pressure
20% 30.32" Hg 1027.3 hPa